메인 페이지
METAR-TAF:

METAR-TAF

공항 :

Mason City Municipal Airport

메이슨 시, 아이오와, 미국

위도: 43-09-28N, 경도: 093-19-53W, 고도: 370m

현재 날씨관측

예보는 25분 전, 13:53시(UTC)에 발표되었습니다.
서남서9kt
온도 13°C
습도 94%
기압 1006 hPa
시정: 2.8km
고도 300ft 상공 흐림
박무

METAR: KMCW 071353Z AUTO 24009KT 1 3/4SM BR OVC003 13/12 A2970 RMK AO2 SLP054 T01330122

시각: 09:18 (14:18 UTC)

예보

예보는 2 시간 56분 전, 11:22시(UTC)에 발표되었습니다.
예보 대상 시간: 07일 12시부터 08일 12시까지 (UTC)
남남동6kt
시정: 1.6km
고도 200ft 상공 흐림
박무
07일 1300시부터 (UTC)
5kt
시정: 6.4km
고도 700ft 상공 구름 많음
고도 1400ft 상공 흐림
박무
07일 1400시부터 (UTC)
남서8kt
시정: 9.7km
고도 900ft 상공 구름 보통
고도 2200ft 상공 구름 많음
박무
07일 1500시부터 (UTC)
서남서9kt
시정: 10km
고도 1500ft 상공 구름 보통
07일 1800시부터 (UTC)
북서12kt
시정: 10km
고도 2500ft 상공 구름 보통
고도 4500ft 상공 구름 많음
08일 0100시부터 (UTC)
여러 방향의 바람 6kt
시정: 10km
고도 12000ft 상공 구름 조금

TAF: KMCW 071122Z 0712/0812 16006KT 1SM BR OVC002 FM071300 18005KT 4SM BR BKN007 OVC014 FM071400 23008KT 6SM BR SCT009 BKN022 FM071500 24009KT P6SM SCT015 FM071800 32012KT P6SM SCT025 BKN045 FM080100 VRB06KT P6SM FEW120

4,000개 이상의 공항 관측 자료 및 예보 (METAR 및 TAF 보고).

지도상에서 검색 가능한 기상관측소가 노란 점과 빨간 점으로 표시되어 있습니다.

기상관측소 명을 보려면 표시 위로 마우스를 이동하세요.

날씨 관측과 예보를 보려면 클릭하세요.

지도 변경 : 확대하려면 엑스 표시가 있는 녹색 버튼, 축소하려면 빼기 표시가 있는 녹색 버튼, 다음 페이지의 지도를 보려면 녹색 화살표를 클릭하세요.


METAR-TAF: